Cygnus — 9HA2105 — position and weather

sailwx.info

Track history (hours):
 
Tides and Currents Weather Stations Pressure Air Temp Water Temp Dewpoint Dewpoint Depression Visibility Wind Speed Wind Dir Waves Ship Positions

Cygnus

Last reported at 2017-Aug-20 07:24 UTC. Time now 2017-Aug-23 06:18 UTC.
Position N 01°16' E 104°08'.

Length 177 m; draft 5.8 m.

Type: Cargo ship. MMSI: 249963000.

Date/timePositionNaut miles runAvg speedWind from/ knotsBaromVisibWave heightAir tempDewpointWater temp
2017-Aug-20 07:24N 01°16' E 104°08'4 9.9
2017-Aug-20 06:59N 01°19' E 104°06'13 3.8
2017-Aug-20 03:36N 01°26' E 103°55'0 0.0
2017-Aug-19 23:18N 01°26' E 103°55'0 0.0
2017-Aug-19 16:45N 01°26' E 103°55'0 0.0
2017-Aug-19 16:27N 01°26' E 103°55'0 0.0
2017-Aug-17 20:20N 01°26' E 103°55'  
2017-Aug-13 11:29N 01°26' E 103°55'0 0.1
2017-Aug-13 10:53N 01°26' E 103°55'0 0.0
2017-Aug-13 10:17N 01°26' E 103°55'0 0.0
2017-Aug-13 06:35N 01°26' E 103°55'0 0.0
2017-Aug-13 04:32N 01°26' E 103°55'0 0.0
2017-Aug-13 04:14N 01°26' E 103°55'0 0.0
2017-Aug-12 22:22N 01°26' E 103°55'0 0.0
2017-Aug-12 18:40N 01°26' E 103°55'0 0.0
2017-Aug-12 15:31N 01°26' E 103°55'0 0.0
2017-Aug-12 15:22N 01°26' E 103°55'0 0.0
2017-Aug-12 14:43N 01°26' E 103°55'0 0.0
2017-Aug-12 14:16N 01°26' E 103°55'0 0.0
2017-Aug-11 21:04N 01°26' E 103°55'0 0.0
2017-Aug-11 10:09N 01°26' E 103°55'0 0.0
2017-Aug-10 23:31N 01°26' E 103°55'0 0.4
2017-Aug-10 23:30N 01°26' E 103°55'3 3.9
2017-Aug-10 22:41N 01°24' E 103°57'2 7.9
2017-Aug-10 22:24N 01°24' E 103°59'410.4
2017-Aug-10 21:59N 01°22' E 104°03'4 0.4
2017-Aug-10 11:27N 01°19' E 104°07'  
Track history (hours):
 
Tides and Currents Weather Stations Pressure Air Temp Water Temp Dewpoint Dewpoint Depression Visibility Wind Speed Wind Dir Waves Ship Positions

Cygnus

Last reported at 2017-Aug-20 07:24 UTC. Time now 2017-Aug-23 06:18 UTC.
Position N 01°16' E 104°08'.

Length 177 m; draft 5.8 m.

Type: Cargo ship. MMSI: 249963000.

Date/timePositionNaut miles runAvg speedWind from/ knotsBaromVisibWave heightAir tempDewpointWater temp
2017-Aug-20 07:24N 01°16' E 104°08'4 9.9
2017-Aug-20 06:59N 01°19' E 104°06'13 3.8
2017-Aug-20 03:36N 01°26' E 103°55'0 0.0
2017-Aug-19 23:18N 01°26' E 103°55'0 0.0
2017-Aug-19 16:45N 01°26' E 103°55'0 0.0
2017-Aug-19 16:27N 01°26' E 103°55'0 0.0
2017-Aug-17 20:20N 01°26' E 103°55'  
2017-Aug-13 11:29N 01°26' E 103°55'0 0.1
2017-Aug-13 10:53N 01°26' E 103°55'0 0.0
2017-Aug-13 10:17N 01°26' E 103°55'0 0.0
2017-Aug-13 06:35N 01°26' E 103°55'0 0.0
2017-Aug-13 04:32N 01°26' E 103°55'0 0.0
2017-Aug-13 04:14N 01°26' E 103°55'0 0.0
2017-Aug-12 22:22N 01°26' E 103°55'0 0.0
2017-Aug-12 18:40N 01°26' E 103°55'0 0.0
2017-Aug-12 15:31N 01°26' E 103°55'0 0.0
2017-Aug-12 15:22N 01°26' E 103°55'0 0.0
2017-Aug-12 14:43N 01°26' E 103°55'0 0.0
2017-Aug-12 14:16N 01°26' E 103°55'0 0.0
2017-Aug-11 21:04N 01°26' E 103°55'0 0.0
2017-Aug-11 10:09N 01°26' E 103°55'0 0.0
2017-Aug-10 23:31N 01°26' E 103°55'0 0.4
2017-Aug-10 23:30N 01°26' E 103°55'3 3.9
2017-Aug-10 22:41N 01°24' E 103°57'2 7.9
2017-Aug-10 22:24N 01°24' E 103°59'410.4
2017-Aug-10 21:59N 01°22' E 104°03'4 0.4
2017-Aug-10 11:27N 01°19' E 104°07'  

Dump ship's entire track history